Nrc Columbia — WDA8288 — position and weather

sailwx.info

Track history (hours):
 
Tides and Currents Weather Stations Pressure Air Temp Water Temp Dewpoint Dewpoint Depression Visibility Wind Speed Wind Dir Waves Ship Positions

Nrc Columbia

Owner: National Response Corporation, The Woodlands, TX. More information available from US FCC via Universal Licensing System and Coast Guard Vessel Documentation Center.

Last reported at 2017-Mar-23 13:31 UTC. Time now 2017-Mar-23 22:16 UTC.
Position N 48°50' W 122°43'.

Length 35 m.

Type: Pollution control. MMSI: 366710170.

Date/timePositionNaut miles runAvg speedWind from/ knotsBaromVisibWave heightAir tempDewpointWater temp
2017-Mar-23 13:31N 48°50' W 122°43'6 6.0
2017-Mar-23 12:34N 48°44' W 122°41'1 0.7
2017-Mar-23 10:30N 48°43' W 122°40'0 0.0
2017-Mar-23 04:27N 48°43' W 122°40'2 2.4
2017-Mar-23 03:29N 48°45' W 122°42'5 4.7
2017-Mar-23 02:26N 48°50' W 122°43'0 0.0
2017-Mar-23 01:32N 48°50' W 122°43'0 0.0
2017-Mar-22 20:26N 48°50' W 122°43'0 0.0
2017-Mar-22 16:32N 48°50' W 122°43'0 0.0
2017-Mar-22 13:20N 48°50' W 122°43'0 0.0
2017-Mar-22 11:14N 48°50' W 122°43'0 0.0
2017-Mar-22 09:20N 48°50' W 122°43'0 0.0
2017-Mar-22 03:26N 48°50' W 122°43'0 0.0
2017-Mar-21 15:20N 48°50' W 122°43'0 0.0
2017-Mar-21 14:29N 48°50' W 122°43'0 0.0
2017-Mar-21 12:20N 48°50' W 122°43'0 0.0
2017-Mar-21 10:08N 48°50' W 122°43'0 0.0
2017-Mar-21 09:17N 48°50' W 122°43'0 0.0
2017-Mar-21 05:32N 48°50' W 122°43'0 0.0
2017-Mar-21 03:32N 48°50' W 122°43'0 0.0
2017-Mar-21 01:26N 48°50' W 122°43'0 0.0
2017-Mar-21 00:26N 48°50' W 122°43'0 0.0
2017-Mar-20 23:29N 48°50' W 122°43'0 0.0
2017-Mar-20 22:20N 48°50' W 122°43'0 0.0
2017-Mar-20 21:32N 48°50' W 122°43'0 0.0
2017-Mar-20 18:32N 48°50' W 122°43'0 0.0
2017-Mar-20 17:26N 48°50' W 122°43'0 0.0
2017-Mar-20 16:20N 48°50' W 122°43'0 0.3
2017-Mar-20 15:30N 48°50' W 122°43'7 5.4
2017-Mar-20 14:12N 48°43' W 122°40'0 0.0
2017-Mar-20 11:30N 48°43' W 122°40'0 0.0
2017-Mar-20 09:30N 48°43' W 122°40'0 0.0
2017-Mar-20 08:21N 48°43' W 122°40'0 0.0
2017-Mar-20 03:33N 48°43' W 122°40'0 0.0
2017-Mar-19 22:06N 48°43' W 122°40'0 0.0
2017-Mar-19 21:30N 48°43' W 122°40'0 0.0
2017-Mar-19 20:33N 48°43' W 122°40'0 0.0
2017-Mar-19 18:18N 48°43' W 122°40'0 0.0
2017-Mar-19 08:33N 48°43' W 122°40'3 0.8
2017-Mar-19 04:30N 48°46' W 122°43'4 1.7
2017-Mar-19 02:14N 48°50' W 122°43'0 0.0
2017-Mar-18 20:14N 48°50' W 122°43'0 0.0
2017-Mar-18 12:20N 48°50' W 122°43'0 0.0
2017-Mar-18 11:32N 48°50' W 122°43'0 0.0
2017-Mar-18 10:32N 48°50' W 122°43'0 0.0
2017-Mar-18 09:26N 48°50' W 122°43'0 0.0
2017-Mar-18 08:29N 48°50' W 122°43'0 0.0
2017-Mar-18 05:26N 48°50' W 122°43'0 0.0
2017-Mar-18 04:32N 48°50' W 122°43'0 0.0
2017-Mar-18 03:29N 48°50' W 122°43'0 0.0
2017-Mar-18 02:29N 48°50' W 122°43'0 0.0
2017-Mar-18 01:26N 48°50' W 122°43'0 0.0
2017-Mar-18 00:23N 48°50' W 122°43'0 0.0
2017-Mar-17 23:08N 48°50' W 122°43'0 0.0
2017-Mar-17 22:26N 48°50' W 122°43'0 0.0
2017-Mar-17 19:05N 48°50' W 122°43'0 0.0
2017-Mar-17 16:23N 48°50' W 122°43'0 0.0
2017-Mar-17 15:29N 48°50' W 122°43'0 0.0
2017-Mar-17 14:29N 48°50' W 122°43'0 0.0
2017-Mar-17 13:29N 48°50' W 122°43'0 0.0
2017-Mar-17 12:17N 48°50' W 122°43'0 0.0
2017-Mar-17 10:23N 48°50' W 122°43'0 0.0
2017-Mar-17 09:32N 48°50' W 122°43'0 0.0
2017-Mar-17 08:23N 48°50' W 122°43'0 0.0
2017-Mar-17 06:05N 48°50' W 122°43'0 0.0
2017-Mar-17 03:29N 48°50' W 122°43'0 0.0
2017-Mar-17 02:17N 48°50' W 122°43'0 0.0
2017-Mar-16 23:29N 48°50' W 122°43'0 0.0
2017-Mar-16 21:26N 48°50' W 122°43'0 0.0
2017-Mar-16 20:29N 48°50' W 122°43'0 0.0
2017-Mar-16 17:11N 48°50' W 122°43'0 0.0
2017-Mar-16 15:30N 48°50' W 122°43'0 0.0
2017-Mar-16 14:25N 48°50' W 122°43'0 0.0
2017-Mar-16 09:17N 48°50' W 122°43'0 0.0
2017-Mar-16 08:32N 48°50' W 122°43'0 0.0
2017-Mar-16 06:11N 48°50' W 122°43'0 0.0
2017-Mar-16 05:26N 48°50' W 122°43'0 0.0
2017-Mar-16 04:11N 48°50' W 122°43'0 0.0
2017-Mar-16 01:20N 48°50' W 122°43'0 0.0
2017-Mar-15 21:11N 48°50' W 122°43'0 0.1
2017-Mar-15 20:17N 48°50' W 122°43'0 0.0
2017-Mar-15 12:26N 48°50' W 122°43'0 0.0
2017-Mar-15 11:32N 48°50' W 122°43'0 0.0
2017-Mar-15 09:23N 48°50' W 122°43'0 0.0
2017-Mar-15 08:32N 48°50' W 122°43'0 0.0
2017-Mar-15 04:32N 48°50' W 122°43'0 0.0
2017-Mar-15 00:32N 48°50' W 122°43'0 0.0
2017-Mar-14 21:29N 48°50' W 122°43'0 0.0
2017-Mar-14 20:29N 48°50' W 122°43'0 0.0
2017-Mar-14 19:20N 48°50' W 122°43'0 0.0
2017-Mar-14 18:32N 48°50' W 122°43'0 0.0
2017-Mar-14 17:32N 48°50' W 122°43'0 0.0
2017-Mar-14 15:32N 48°50' W 122°43'0 0.0
2017-Mar-14 14:20N 48°50' W 122°43'0 0.0
2017-Mar-14 12:08N 48°50' W 122°43'0 0.0
2017-Mar-14 09:29N 48°50' W 122°43'0 0.0
2017-Mar-14 08:20N 48°50' W 122°43'0 0.0
2017-Mar-14 06:32N 48°50' W 122°43'0 0.0
2017-Mar-14 05:32N 48°50' W 122°43'0 0.0
2017-Mar-14 04:32N 48°50' W 122°43'0 0.0
2017-Mar-14 03:23N 48°50' W 122°43'0 0.0
2017-Mar-13 22:20N 48°50' W 122°43'0 0.0
2017-Mar-13 20:32N 48°50' W 122°43'0 0.0
2017-Mar-13 19:05N 48°50' W 122°43'0 0.0
2017-Mar-13 18:20N 48°50' W 122°43'0 0.0
2017-Mar-13 17:23N 48°50' W 122°43'0 0.0
2017-Mar-13 16:32N 48°50' W 122°43'0 0.0
2017-Mar-13 14:32N 48°50' W 122°43'  
Track history (hours):
 
Tides and Currents Weather Stations Pressure Air Temp Water Temp Dewpoint Dewpoint Depression Visibility Wind Speed Wind Dir Waves Ship Positions

Nrc Columbia

Owner: National Response Corporation, The Woodlands, TX. More information available from US FCC via Universal Licensing System and Coast Guard Vessel Documentation Center.

Last reported at 2017-Mar-23 13:31 UTC. Time now 2017-Mar-23 22:16 UTC.
Position N 48°50' W 122°43'.

Length 35 m.

Type: Pollution control. MMSI: 366710170.

Date/timePositionNaut miles runAvg speedWind from/ knotsBaromVisibWave heightAir tempDewpointWater temp
2017-Mar-23 13:31N 48°50' W 122°43'6 6.0
2017-Mar-23 12:34N 48°44' W 122°41'1 0.7
2017-Mar-23 10:30N 48°43' W 122°40'0 0.0
2017-Mar-23 04:27N 48°43' W 122°40'2 2.4
2017-Mar-23 03:29N 48°45' W 122°42'5 4.7
2017-Mar-23 02:26N 48°50' W 122°43'0 0.0
2017-Mar-23 01:32N 48°50' W 122°43'0 0.0
2017-Mar-22 20:26N 48°50' W 122°43'0 0.0
2017-Mar-22 16:32N 48°50' W 122°43'0 0.0
2017-Mar-22 13:20N 48°50' W 122°43'0 0.0
2017-Mar-22 11:14N 48°50' W 122°43'0 0.0
2017-Mar-22 09:20N 48°50' W 122°43'0 0.0
2017-Mar-22 03:26N 48°50' W 122°43'0 0.0
2017-Mar-21 15:20N 48°50' W 122°43'0 0.0
2017-Mar-21 14:29N 48°50' W 122°43'0 0.0
2017-Mar-21 12:20N 48°50' W 122°43'0 0.0
2017-Mar-21 10:08N 48°50' W 122°43'0 0.0
2017-Mar-21 09:17N 48°50' W 122°43'0 0.0
2017-Mar-21 05:32N 48°50' W 122°43'0 0.0
2017-Mar-21 03:32N 48°50' W 122°43'0 0.0
2017-Mar-21 01:26N 48°50' W 122°43'0 0.0
2017-Mar-21 00:26N 48°50' W 122°43'0 0.0
2017-Mar-20 23:29N 48°50' W 122°43'0 0.0
2017-Mar-20 22:20N 48°50' W 122°43'0 0.0
2017-Mar-20 21:32N 48°50' W 122°43'0 0.0
2017-Mar-20 18:32N 48°50' W 122°43'0 0.0
2017-Mar-20 17:26N 48°50' W 122°43'0 0.0
2017-Mar-20 16:20N 48°50' W 122°43'0 0.3
2017-Mar-20 15:30N 48°50' W 122°43'7 5.4
2017-Mar-20 14:12N 48°43' W 122°40'0 0.0
2017-Mar-20 11:30N 48°43' W 122°40'0 0.0
2017-Mar-20 09:30N 48°43' W 122°40'0 0.0
2017-Mar-20 08:21N 48°43' W 122°40'0 0.0
2017-Mar-20 03:33N 48°43' W 122°40'0 0.0
2017-Mar-19 22:06N 48°43' W 122°40'0 0.0
2017-Mar-19 21:30N 48°43' W 122°40'0 0.0
2017-Mar-19 20:33N 48°43' W 122°40'0 0.0
2017-Mar-19 18:18N 48°43' W 122°40'0 0.0
2017-Mar-19 08:33N 48°43' W 122°40'3 0.8
2017-Mar-19 04:30N 48°46' W 122°43'4 1.7
2017-Mar-19 02:14N 48°50' W 122°43'0 0.0
2017-Mar-18 20:14N 48°50' W 122°43'0 0.0
2017-Mar-18 12:20N 48°50' W 122°43'0 0.0
2017-Mar-18 11:32N 48°50' W 122°43'0 0.0
2017-Mar-18 10:32N 48°50' W 122°43'0 0.0
2017-Mar-18 09:26N 48°50' W 122°43'0 0.0
2017-Mar-18 08:29N 48°50' W 122°43'0 0.0
2017-Mar-18 05:26N 48°50' W 122°43'0 0.0
2017-Mar-18 04:32N 48°50' W 122°43'0 0.0
2017-Mar-18 03:29N 48°50' W 122°43'0 0.0
2017-Mar-18 02:29N 48°50' W 122°43'0 0.0
2017-Mar-18 01:26N 48°50' W 122°43'0 0.0
2017-Mar-18 00:23N 48°50' W 122°43'0 0.0
2017-Mar-17 23:08N 48°50' W 122°43'0 0.0
2017-Mar-17 22:26N 48°50' W 122°43'0 0.0
2017-Mar-17 19:05N 48°50' W 122°43'0 0.0
2017-Mar-17 16:23N 48°50' W 122°43'0 0.0
2017-Mar-17 15:29N 48°50' W 122°43'0 0.0
2017-Mar-17 14:29N 48°50' W 122°43'0 0.0
2017-Mar-17 13:29N 48°50' W 122°43'0 0.0
2017-Mar-17 12:17N 48°50' W 122°43'0 0.0
2017-Mar-17 10:23N 48°50' W 122°43'0 0.0
2017-Mar-17 09:32N 48°50' W 122°43'0 0.0
2017-Mar-17 08:23N 48°50' W 122°43'0 0.0
2017-Mar-17 06:05N 48°50' W 122°43'0 0.0
2017-Mar-17 03:29N 48°50' W 122°43'0 0.0
2017-Mar-17 02:17N 48°50' W 122°43'0 0.0
2017-Mar-16 23:29N 48°50' W 122°43'0 0.0
2017-Mar-16 21:26N 48°50' W 122°43'0 0.0
2017-Mar-16 20:29N 48°50' W 122°43'0 0.0
2017-Mar-16 17:11N 48°50' W 122°43'0 0.0
2017-Mar-16 15:30N 48°50' W 122°43'0 0.0
2017-Mar-16 14:25N 48°50' W 122°43'0 0.0
2017-Mar-16 09:17N 48°50' W 122°43'0 0.0
2017-Mar-16 08:32N 48°50' W 122°43'0 0.0
2017-Mar-16 06:11N 48°50' W 122°43'0 0.0
2017-Mar-16 05:26N 48°50' W 122°43'0 0.0
2017-Mar-16 04:11N 48°50' W 122°43'0 0.0
2017-Mar-16 01:20N 48°50' W 122°43'0 0.0
2017-Mar-15 21:11N 48°50' W 122°43'0 0.1
2017-Mar-15 20:17N 48°50' W 122°43'0 0.0
2017-Mar-15 12:26N 48°50' W 122°43'0 0.0
2017-Mar-15 11:32N 48°50' W 122°43'0 0.0
2017-Mar-15 09:23N 48°50' W 122°43'0 0.0
2017-Mar-15 08:32N 48°50' W 122°43'0 0.0
2017-Mar-15 04:32N 48°50' W 122°43'0 0.0
2017-Mar-15 00:32N 48°50' W 122°43'0 0.0
2017-Mar-14 21:29N 48°50' W 122°43'0 0.0
2017-Mar-14 20:29N 48°50' W 122°43'0 0.0
2017-Mar-14 19:20N 48°50' W 122°43'0 0.0
2017-Mar-14 18:32N 48°50' W 122°43'0 0.0
2017-Mar-14 17:32N 48°50' W 122°43'0 0.0
2017-Mar-14 15:32N 48°50' W 122°43'0 0.0
2017-Mar-14 14:20N 48°50' W 122°43'0 0.0
2017-Mar-14 12:08N 48°50' W 122°43'0 0.0
2017-Mar-14 09:29N 48°50' W 122°43'0 0.0
2017-Mar-14 08:20N 48°50' W 122°43'0 0.0
2017-Mar-14 06:32N 48°50' W 122°43'0 0.0
2017-Mar-14 05:32N 48°50' W 122°43'0 0.0
2017-Mar-14 04:32N 48°50' W 122°43'0 0.0
2017-Mar-14 03:23N 48°50' W 122°43'0 0.0
2017-Mar-13 22:20N 48°50' W 122°43'0 0.0
2017-Mar-13 20:32N 48°50' W 122°43'0 0.0
2017-Mar-13 19:05N 48°50' W 122°43'0 0.0
2017-Mar-13 18:20N 48°50' W 122°43'0 0.0
2017-Mar-13 17:23N 48°50' W 122°43'0 0.0
2017-Mar-13 16:32N 48°50' W 122°43'0 0.0
2017-Mar-13 14:32N 48°50' W 122°43'  

Dump ship's entire track history